createdAt,value
2023-05-10T00:01:23.173Z,6.00
2023-05-10T00:03:49.838Z,8.03
2023-05-10T00:06:16.397Z,5.93
2023-05-10T00:08:42.907Z,6.53
2023-05-10T00:11:09.384Z,5.53
2023-05-10T00:13:35.873Z,4.63
2023-05-10T00:16:02.429Z,6.67
2023-05-10T00:18:28.950Z,5.33
2023-05-10T00:20:55.470Z,5.40
2023-05-10T00:23:22.097Z,6.37
2023-05-10T00:25:51.368Z,5.70
2023-05-10T00:28:17.898Z,7.20
2023-05-10T00:30:44.413Z,8.60
2023-05-10T00:33:12.567Z,5.93
2023-05-10T00:35:39.309Z,6.67
2023-05-10T00:38:05.791Z,4.40
2023-05-10T00:40:32.310Z,6.97
2023-05-10T00:42:59.489Z,6.30
2023-05-10T00:45:26.324Z,6.67
2023-05-10T00:47:56.146Z,6.30
2023-05-10T00:50:23.228Z,8.43
2023-05-10T00:52:50.435Z,5.70
2023-05-10T00:55:16.923Z,4.47
2023-05-10T00:57:43.629Z,7.33
2023-05-10T01:00:10.821Z,3.93
2023-05-10T01:02:37.428Z,7.40
2023-05-10T01:05:04.741Z,8.50
2023-05-10T01:07:31.363Z,7.13
2023-05-10T01:09:57.851Z,5.30
2023-05-10T01:12:24.420Z,6.40
2023-05-10T01:14:50.912Z,5.30
2023-05-10T01:17:17.896Z,6.00
2023-05-10T01:19:44.387Z,5.03
2023-05-10T01:22:16.941Z,6.93
2023-05-10T01:24:52.576Z,4.00
2023-05-10T01:27:31.246Z,6.20
2023-05-10T01:30:16.021Z,6.87
2023-05-10T01:32:53.953Z,5.00
2023-05-10T01:35:20.517Z,8.83
2023-05-10T01:37:48.456Z,4.67
2023-05-10T01:40:20.789Z,6.33
2023-05-10T01:42:48.860Z,5.33
2023-05-10T01:45:30.907Z,4.87
2023-05-10T01:48:04.901Z,6.87
2023-05-10T01:50:31.561Z,4.67
2023-05-10T01:52:58.705Z,9.00
2023-05-10T01:55:26.116Z,9.30
2023-05-10T01:57:54.089Z,6.07
2023-05-10T02:00:20.561Z,6.53
2023-05-10T02:02:47.395Z,5.87
2023-05-10T02:05:14.377Z,5.90
2023-05-10T02:07:40.946Z,6.40
2023-05-10T02:10:08.589Z,6.10
2023-05-10T02:12:38.928Z,4.50
2023-05-10T02:15:05.779Z,8.37
2023-05-10T02:17:33.132Z,8.73
2023-05-10T02:20:02.633Z,7.77
2023-05-10T02:22:29.091Z,5.73
2023-05-10T02:24:56.263Z,7.13
2023-05-10T02:27:23.141Z,6.93
2023-05-10T02:29:49.606Z,9.53
2023-05-10T02:32:16.282Z,6.10
2023-05-10T02:34:43.138Z,8.83
2023-05-10T02:37:09.791Z,7.53
2023-05-10T02:39:36.293Z,5.37
2023-05-10T02:42:03.409Z,6.93
2023-05-10T02:44:32.316Z,10.27
2023-05-10T02:46:59.031Z,10.43
2023-05-10T02:49:25.541Z,9.63
2023-05-10T02:51:53.205Z,10.63
2023-05-10T02:54:20.090Z,11.07
2023-05-10T02:56:55.317Z,11.80
2023-05-10T02:59:21.839Z,6.60
2023-05-10T03:01:48.439Z,9.30
2023-05-10T03:04:14.968Z,7.17
2023-05-10T03:06:41.638Z,8.00
2023-05-10T03:09:10.446Z,10.23
2023-05-10T03:11:46.493Z,11.40
2023-05-10T03:14:18.979Z,8.20
2023-05-10T03:16:48.706Z,10.73
2023-05-10T03:19:26.097Z,9.47
2023-05-10T03:21:53.434Z,8.43
2023-05-10T03:24:21.215Z,6.60
2023-05-10T03:26:47.673Z,7.77
2023-05-10T03:29:15.005Z,8.80
2023-05-10T03:31:41.522Z,9.43
2023-05-10T03:34:08.166Z,7.30
2023-05-10T03:36:34.707Z,6.57
2023-05-10T03:39:01.233Z,10.50
2023-05-10T03:41:27.850Z,7.00
2023-05-10T03:43:54.473Z,6.17
2023-05-10T03:46:21.065Z,6.70
2023-05-10T03:48:47.572Z,10.83
2023-05-10T03:51:14.080Z,7.10
2023-05-10T03:53:40.555Z,10.03
2023-05-10T03:56:07.102Z,9.97
2023-05-10T03:58:33.616Z,8.83
2023-05-10T04:01:00.171Z,8.73
2023-05-10T04:03:27.447Z,8.93
2023-05-10T04:06:01.274Z,8.27
2023-05-10T04:08:27.921Z,10.43
2023-05-10T04:10:54.465Z,13.37
2023-05-10T04:13:21.032Z,11.27
2023-05-10T04:15:47.689Z,8.40
2023-05-10T04:18:14.182Z,6.07
2023-05-10T04:20:40.683Z,8.30
2023-05-10T04:23:07.265Z,6.87
2023-05-10T04:25:35.099Z,9.90
2023-05-10T04:28:01.666Z,7.13
2023-05-10T04:30:30.276Z,6.13
2023-05-10T04:32:56.828Z,7.43
2023-05-10T04:35:23.630Z,5.47
2023-05-10T04:37:50.145Z,7.83
2023-05-10T04:40:16.925Z,10.33
2023-05-10T04:42:43.773Z,7.97
2023-05-10T04:45:10.817Z,5.50
2023-05-10T04:47:38.196Z,7.17
2023-05-10T04:50:05.218Z,5.73
2023-05-10T04:52:31.740Z,7.13
2023-05-10T04:54:58.246Z,7.73
2023-05-10T04:57:24.772Z,7.17
2023-05-10T04:59:51.330Z,6.33
2023-05-10T05:02:17.870Z,5.27
2023-05-10T05:04:44.382Z,5.03
2023-05-10T05:07:10.906Z,7.23
2023-05-10T05:09:37.578Z,4.93
2023-05-10T05:12:04.207Z,5.70
2023-05-10T05:14:30.716Z,4.55
2023-05-10T05:16:57.601Z,5.50
2023-05-10T05:19:24.259Z,4.60
2023-05-10T05:21:52.041Z,6.23
2023-05-10T05:24:18.659Z,7.87
2023-05-10T05:26:45.270Z,6.55
2023-05-10T05:29:12.290Z,5.25
2023-05-10T05:31:38.981Z,4.30
2023-05-10T05:34:05.539Z,4.95
2023-05-10T05:36:32.586Z,5.72
2023-05-10T05:38:59.049Z,4.78
2023-05-10T05:41:25.730Z,4.85
2023-05-10T05:43:54.720Z,5.55
2023-05-10T05:46:21.305Z,4.18
2023-05-10T05:48:48.016Z,4.32
2023-05-10T05:51:14.526Z,7.88
2023-05-10T05:53:40.983Z,6.78
2023-05-10T05:56:07.473Z,3.13
2023-05-10T05:58:34.102Z,8.45
2023-05-10T06:01:00.753Z,2.63
2023-05-10T06:03:27.227Z,4.15
2023-05-10T06:05:53.836Z,2.83
2023-05-10T06:08:20.603Z,2.78
2023-05-10T06:10:47.149Z,2.70
2023-05-10T06:13:13.692Z,5.03
2023-05-10T06:15:40.261Z,3.78
2023-05-10T06:18:07.156Z,4.75
2023-05-10T06:20:33.726Z,2.15
2023-05-10T06:23:00.267Z,5.55
2023-05-10T06:25:26.824Z,4.05
2023-05-10T06:27:58.134Z,1.20
2023-05-10T06:30:28.464Z,3.42
2023-05-10T06:32:55.453Z,1.70
2023-05-10T06:35:22.075Z,1.58
2023-05-10T06:37:48.592Z,2.47
2023-05-10T06:40:15.534Z,3.08
2023-05-10T06:42:42.342Z,1.73
2023-05-10T06:45:09.688Z,3.03
2023-05-10T06:47:38.793Z,3.70
2023-05-10T06:50:06.133Z,3.15
2023-05-10T06:52:32.845Z,2.13
2023-05-10T06:54:59.349Z,1.48
2023-05-10T06:59:59.720Z,1.92
2023-05-10T07:02:26.546Z,1.77
2023-05-10T07:04:53.610Z,6.22
2023-05-10T07:07:20.189Z,1.40
2023-05-10T07:09:46.834Z,2.42
2023-05-10T07:12:15.196Z,1.58
2023-05-10T07:14:42.660Z,2.10
2023-05-10T07:17:09.336Z,1.67
2023-05-10T07:19:36.428Z,1.65
2023-05-10T07:22:02.899Z,2.90
2023-05-10T07:24:29.404Z,1.30
2023-05-10T07:26:55.980Z,2.42
2023-05-10T07:29:22.485Z,1.35
2023-05-10T07:31:49.154Z,3.00
2023-05-10T07:34:15.671Z,2.92
2023-05-10T07:36:42.181Z,1.67
2023-05-10T07:39:08.740Z,1.70
2023-05-10T07:41:35.977Z,2.63
2023-05-10T07:44:02.753Z,1.33
2023-05-10T07:46:29.657Z,1.90
2023-05-10T07:48:56.255Z,0.90
2023-05-10T07:51:22.796Z,1.35
2023-05-10T07:53:49.294Z,2.13
2023-05-10T07:56:26.420Z,1.83
2023-05-10T07:58:53.123Z,4.38
2023-05-10T08:01:19.821Z,2.35
2023-05-10T08:03:46.628Z,3.47
2023-05-10T08:06:13.337Z,1.08
2023-05-10T08:08:39.840Z,3.85
2023-05-10T08:11:06.441Z,1.20
2023-05-10T08:13:32.982Z,1.30
2023-05-10T08:15:59.558Z,2.25
2023-05-10T08:18:26.209Z,1.30
2023-05-10T08:20:52.688Z,2.17
2023-05-10T08:23:19.176Z,2.25
2023-05-10T08:25:45.801Z,2.03
2023-05-10T08:28:12.274Z,1.52
2023-05-10T08:30:38.759Z,2.85
2023-05-10T08:33:05.464Z,2.35
2023-05-10T08:35:32.758Z,1.38
2023-05-10T08:37:59.273Z,1.77
2023-05-10T08:40:25.914Z,2.03
2023-05-10T08:42:54.631Z,0.98
2023-05-10T08:45:21.363Z,1.08
2023-05-10T08:47:48.117Z,3.45
2023-05-10T08:50:14.828Z,1.90
2023-05-10T08:52:41.351Z,1.20
2023-05-10T08:55:08.329Z,1.75
2023-05-10T08:57:34.809Z,2.17
2023-05-10T09:00:01.743Z,1.45
2023-05-10T09:02:28.263Z,0.80
2023-05-10T09:04:54.839Z,0.98
2023-05-10T09:07:21.358Z,1.23
2023-05-10T09:09:48.248Z,1.20
2023-05-10T09:12:16.656Z,1.85
2023-05-10T09:14:43.448Z,0.90
2023-05-10T09:17:10.386Z,1.15
2023-05-10T09:19:36.933Z,1.33
2023-05-10T09:22:03.586Z,0.85
2023-05-10T09:24:30.823Z,0.88
2023-05-10T09:26:59.480Z,0.82
2023-05-10T09:29:26.154Z,1.00
2023-05-10T09:31:55.545Z,0.90
2023-05-10T09:34:29.366Z,0.85
2023-05-10T09:36:57.334Z,2.30
2023-05-10T09:39:33.355Z,1.50
2023-05-10T09:42:00.855Z,0.88
2023-05-10T09:44:27.692Z,1.52
2023-05-10T09:46:54.194Z,1.98
2023-05-10T09:49:21.896Z,4.65
2023-05-10T09:51:48.799Z,1.83
2023-05-10T09:54:16.463Z,0.90
2023-05-10T09:56:43.220Z,3.25
2023-05-10T09:59:12.983Z,1.13
2023-05-10T10:01:39.892Z,0.98
2023-05-10T10:04:07.015Z,0.70
2023-05-10T10:06:37.865Z,2.40
2023-05-10T10:09:04.884Z,0.70
2023-05-10T10:11:31.476Z,1.23
2023-05-10T10:13:57.972Z,1.13
2023-05-10T10:16:24.613Z,0.80
2023-05-10T10:18:51.164Z,1.50
2023-05-10T10:21:17.689Z,1.00
2023-05-10T10:23:44.759Z,2.22
2023-05-10T10:26:11.224Z,4.97
2023-05-10T10:28:37.744Z,3.20
2023-05-10T10:31:13.498Z,5.40
2023-05-10T10:33:49.155Z,1.35
2023-05-10T10:36:16.273Z,4.78
2023-05-10T10:38:48.984Z,1.00
2023-05-10T10:41:32.405Z,1.50
2023-05-10T10:44:18.197Z,3.45
2023-05-10T10:47:03.705Z,1.33
2023-05-10T10:49:34.692Z,1.13
2023-05-10T10:52:20.054Z,1.42
2023-05-10T10:54:53.503Z,1.08
2023-05-10T10:57:20.210Z,3.13
2023-05-10T10:59:47.437Z,1.00
2023-05-10T11:02:32.867Z,1.10
2023-05-10T11:04:59.442Z,1.52
2023-05-10T11:07:26.113Z,2.30
2023-05-10T11:09:52.960Z,1.55
2023-05-10T11:12:19.820Z,1.40
2023-05-10T11:14:50.949Z,1.23
2023-05-10T11:17:24.082Z,1.92
2023-05-10T11:20:11.995Z,3.00
2023-05-10T11:22:53.896Z,0.90
2023-05-10T11:25:20.820Z,0.80
2023-05-10T11:27:48.801Z,1.77
2023-05-10T11:30:16.139Z,1.45
2023-05-10T11:32:43.136Z,0.93
2023-05-10T11:35:10.059Z,2.90
2023-05-10T11:37:36.568Z,0.80
2023-05-10T11:40:03.871Z,3.95
2023-05-10T11:42:31.202Z,1.40
2023-05-10T11:44:57.732Z,1.45
2023-05-10T11:47:24.217Z,1.20
2023-05-10T11:49:52.246Z,1.23
2023-05-10T11:52:19.555Z,2.17
2023-05-10T11:54:52.681Z,1.10
2023-05-10T11:57:19.723Z,1.98
2023-05-10T11:59:46.784Z,2.33
2023-05-10T12:02:14.380Z,1.77
2023-05-10T12:04:41.067Z,1.00
2023-05-10T12:07:07.661Z,1.45
2023-05-10T12:09:43.111Z,2.42
2023-05-10T12:12:11.009Z,2.95
2023-05-10T12:14:37.538Z,2.20
2023-05-10T12:17:04.015Z,4.30
2023-05-10T12:19:37.706Z,1.33
2023-05-10T12:22:05.813Z,1.25
2023-05-10T12:24:34.565Z,0.95
2023-05-10T12:27:07.081Z,1.58
2023-05-10T12:29:33.588Z,1.65
2023-05-10T12:32:00.591Z,1.15
2023-05-10T12:34:37.300Z,3.80
2023-05-10T12:37:03.972Z,6.20
2023-05-10T12:39:43.619Z,1.05
2023-05-10T12:42:10.137Z,1.73
2023-05-10T12:44:36.638Z,1.13
2023-05-10T12:47:03.173Z,1.05
2023-05-10T12:49:29.665Z,2.08
2023-05-10T12:51:56.149Z,0.80
2023-05-10T12:54:22.762Z,1.63
2023-05-10T12:56:50.238Z,2.30
2023-05-10T12:59:16.747Z,1.30
2023-05-10T13:01:43.435Z,0.77
2023-05-10T13:04:10.127Z,1.35
2023-05-10T13:06:36.795Z,3.00
2023-05-10T13:09:03.567Z,1.23
2023-05-10T13:11:30.142Z,2.00
2023-05-10T13:13:56.678Z,3.53
2023-05-10T13:16:23.745Z,2.50
2023-05-10T13:18:50.357Z,0.80
2023-05-10T13:21:17.708Z,1.15
2023-05-10T13:23:44.218Z,1.15
2023-05-10T13:26:10.865Z,2.00
2023-05-10T13:28:39.742Z,3.42
2023-05-10T13:31:06.500Z,1.55
2023-05-10T13:33:33.042Z,2.25
2023-05-10T13:35:59.738Z,1.65
2023-05-10T13:38:26.995Z,1.88
2023-05-10T13:40:54.081Z,1.33
2023-05-10T13:43:20.772Z,4.47
2023-05-10T13:45:47.561Z,2.17
2023-05-10T13:48:14.114Z,1.55
2023-05-10T13:50:41.290Z,1.00
2023-05-10T13:53:08.065Z,3.83
2023-05-10T13:55:34.799Z,1.55
2023-05-10T13:58:01.323Z,0.85
2023-05-10T14:00:28.533Z,0.98
2023-05-10T14:02:55.204Z,0.90
2023-05-10T14:05:25.444Z,3.25
2023-05-10T14:07:52.893Z,1.17
2023-05-10T14:10:19.446Z,1.98
2023-05-10T14:12:46.088Z,1.08
2023-05-10T14:15:12.764Z,0.70
2023-05-10T14:17:39.438Z,1.42
2023-05-10T14:20:06.402Z,1.83
2023-05-10T14:22:33.095Z,1.00
2023-05-10T14:24:59.982Z,0.90
2023-05-10T14:27:26.531Z,0.80
2023-05-10T14:29:54.302Z,0.60
2023-05-10T14:32:21.068Z,1.85
2023-05-10T14:34:47.685Z,0.77
2023-05-10T14:37:14.309Z,1.45
2023-05-10T14:39:41.282Z,1.88
2023-05-10T14:42:07.990Z,0.88
2023-05-10T14:44:34.568Z,1.65
2023-05-10T14:47:01.176Z,1.92
2023-05-10T14:49:27.950Z,0.75
2023-05-10T14:51:54.494Z,1.67
2023-05-10T14:54:21.648Z,0.80
2023-05-10T14:56:49.870Z,1.15
2023-05-10T14:59:16.673Z,1.00
2023-05-10T15:01:44.230Z,1.05
2023-05-10T15:04:11.415Z,0.80
2023-05-10T15:06:38.636Z,0.95
2023-05-10T15:09:05.394Z,1.73
2023-05-10T15:11:31.945Z,1.00
2023-05-10T15:13:58.528Z,2.17
2023-05-10T15:16:25.253Z,1.00
2023-05-10T15:18:52.024Z,0.98
2023-05-10T15:21:18.578Z,1.65
2023-05-10T15:23:45.344Z,1.77
2023-05-10T15:26:11.917Z,0.80
2023-05-10T15:28:38.435Z,2.70
2023-05-10T15:31:05.130Z,1.15
2023-05-10T15:33:32.346Z,1.20
2023-05-10T15:35:58.831Z,1.02
2023-05-10T15:38:25.661Z,0.82
2023-05-10T15:40:52.325Z,1.30
2023-05-10T15:43:18.842Z,0.70
2023-05-10T15:45:45.384Z,1.40
2023-05-10T15:48:12.067Z,0.90
2023-05-10T15:50:38.795Z,1.27
2023-05-10T15:53:06.120Z,1.00
2023-05-10T15:55:33.044Z,0.70
2023-05-10T15:57:59.942Z,3.42
2023-05-10T16:00:26.842Z,1.23
2023-05-10T16:02:54.669Z,3.15
2023-05-10T16:05:22.505Z,2.13
2023-05-10T16:07:49.501Z,1.35
2023-05-10T16:10:16.440Z,1.00
2023-05-10T16:12:43.080Z,1.10
2023-05-10T16:15:10.697Z,1.60
2023-05-10T16:17:38.738Z,1.27
2023-05-10T16:20:06.272Z,0.82
2023-05-10T16:22:32.842Z,1.13
2023-05-10T16:24:59.473Z,0.80
2023-05-10T16:27:28.847Z,1.15
2023-05-10T16:29:55.508Z,1.08
2023-05-10T16:32:22.782Z,1.77
2023-05-10T16:34:50.377Z,1.10
2023-05-10T16:37:16.906Z,0.82
2023-05-10T16:39:43.480Z,0.95
2023-05-10T16:42:10.041Z,1.10
2023-05-10T16:44:36.985Z,1.20
2023-05-10T16:47:03.997Z,1.00
2023-05-10T16:49:31.102Z,1.88
2023-05-10T16:52:02.059Z,1.88
2023-05-10T16:54:29.164Z,2.53
2023-05-10T16:56:55.826Z,0.80
2023-05-10T16:59:22.686Z,1.80
2023-05-10T17:01:49.513Z,1.92
2023-05-10T17:04:16.615Z,1.88
2023-05-10T17:06:43.337Z,1.98
2023-05-10T17:09:12.184Z,2.13
2023-05-10T17:11:38.761Z,1.65
2023-05-10T17:14:05.350Z,3.88
2023-05-10T17:16:32.529Z,2.90
2023-05-10T17:19:01.416Z,1.25
2023-05-10T17:21:28.009Z,1.77
2023-05-10T17:23:54.568Z,1.77
2023-05-10T17:26:22.219Z,3.22
2023-05-10T17:28:48.801Z,1.70
2023-05-10T17:31:16.153Z,1.50
2023-05-10T17:33:43.030Z,3.67
2023-05-10T17:36:09.598Z,7.18
2023-05-10T17:38:36.752Z,1.27
2023-05-10T17:41:03.544Z,2.05
2023-05-10T17:43:30.136Z,4.32
2023-05-10T17:45:57.120Z,1.33
2023-05-10T17:48:23.809Z,1.77
2023-05-10T17:50:50.840Z,2.85
2023-05-10T17:53:18.505Z,2.55
2023-05-10T17:55:45.160Z,5.25
2023-05-10T17:58:12.868Z,2.35
2023-05-10T18:00:44.416Z,2.75
2023-05-10T18:03:11.350Z,1.98
2023-05-10T18:05:38.458Z,3.33
2023-05-10T18:08:06.110Z,3.13
2023-05-10T18:10:33.133Z,4.35
2023-05-10T18:13:00.918Z,5.72
2023-05-10T18:15:28.021Z,2.45
2023-05-10T18:17:56.365Z,6.05
2023-05-10T18:20:23.812Z,2.28
2023-05-10T18:22:50.534Z,2.03
2023-05-10T18:25:20.297Z,3.05
2023-05-10T18:27:47.722Z,2.47
2023-05-10T18:30:15.471Z,2.03
2023-05-10T18:32:42.283Z,1.83
2023-05-10T18:35:09.101Z,3.50
2023-05-10T18:37:35.724Z,4.65
2023-05-10T18:40:02.439Z,5.32
2023-05-10T18:42:30.703Z,3.78
2023-05-10T18:44:58.154Z,3.05
2023-05-10T18:47:27.621Z,4.80
2023-05-10T18:49:55.481Z,2.10
2023-05-10T18:52:25.955Z,2.33
2023-05-10T18:54:52.944Z,4.55
2023-05-10T18:57:21.288Z,3.30
2023-05-10T18:59:59.509Z,5.43
2023-05-10T19:02:27.678Z,3.42
2023-05-10T19:04:55.596Z,1.67
2023-05-10T19:07:22.506Z,2.47
2023-05-10T19:09:49.351Z,6.47
2023-05-10T19:12:16.696Z,2.15
2023-05-10T19:14:43.320Z,3.58
2023-05-10T19:17:09.960Z,4.03
2023-05-10T19:19:37.827Z,1.50
2023-05-10T19:22:04.763Z,3.22
2023-05-10T19:24:31.357Z,4.75
2023-05-10T19:26:58.514Z,2.97
2023-05-10T19:29:28.353Z,4.75
2023-05-10T19:31:55.031Z,5.03
2023-05-10T19:34:21.647Z,1.95
2023-05-10T19:36:48.192Z,1.40
2023-05-10T19:39:14.668Z,4.35
2023-05-10T19:41:41.189Z,2.85
2023-05-10T19:44:07.786Z,4.80
2023-05-10T19:46:34.481Z,4.75
2023-05-10T19:49:00.997Z,4.57
2023-05-10T19:51:27.766Z,7.55
2023-05-10T19:53:54.232Z,3.33
2023-05-10T19:56:21.615Z,3.55
2023-05-10T19:58:48.141Z,2.75
2023-05-10T20:01:14.648Z,2.47
2023-05-10T20:03:41.210Z,6.43
2023-05-10T20:06:07.760Z,7.47
2023-05-10T20:08:34.356Z,4.00
2023-05-10T20:11:02.790Z,2.85
2023-05-10T20:13:29.297Z,4.07
2023-05-10T20:15:59.601Z,4.88
2023-05-10T20:18:26.500Z,5.20
2023-05-10T20:20:53.954Z,2.65
2023-05-10T20:23:20.741Z,3.83
2023-05-10T20:25:47.241Z,2.20
2023-05-10T20:28:13.811Z,2.85
2023-05-10T20:30:40.923Z,2.85
2023-05-10T20:33:08.373Z,6.40
2023-05-10T20:35:34.874Z,3.22
2023-05-10T20:38:02.511Z,7.63
2023-05-10T20:40:28.973Z,4.30
2023-05-10T20:42:55.897Z,3.30
2023-05-10T20:45:22.458Z,5.95
2023-05-10T20:47:50.327Z,5.78
2023-05-10T20:50:17.156Z,5.47
2023-05-10T20:52:44.026Z,2.67
2023-05-10T20:55:10.636Z,5.88
2023-05-10T20:57:37.144Z,5.90
2023-05-10T21:00:03.938Z,3.22
2023-05-10T21:02:31.907Z,5.97
2023-05-10T21:04:58.498Z,2.53
2023-05-10T21:07:25.134Z,3.00
2023-05-10T21:09:51.767Z,5.22
2023-05-10T21:12:18.367Z,3.42
2023-05-10T21:14:47.030Z,2.78
2023-05-10T21:17:14.189Z,9.57
2023-05-10T21:19:40.821Z,3.60
2023-05-10T21:22:07.896Z,5.70
2023-05-10T21:24:35.341Z,5.32
2023-05-10T21:27:01.867Z,6.85
2023-05-10T21:29:28.730Z,3.75
2023-05-10T21:31:55.254Z,4.07
2023-05-10T21:34:21.785Z,7.50
2023-05-10T21:36:48.530Z,4.13
2023-05-10T21:39:15.025Z,5.30
2023-05-10T21:41:41.749Z,3.95
2023-05-10T21:44:08.245Z,4.05
2023-05-10T21:46:34.717Z,4.47
2023-05-10T21:49:01.204Z,3.97
2023-05-10T21:51:29.333Z,4.32
2023-05-10T21:53:55.873Z,5.38
2023-05-10T21:56:22.663Z,4.03
2023-05-10T21:58:49.189Z,5.45
2023-05-10T22:01:17.223Z,4.18
2023-05-10T22:03:44.169Z,4.95
2023-05-10T22:06:10.814Z,3.85
2023-05-10T22:08:37.561Z,3.92
2023-05-10T22:11:04.081Z,4.80
2023-05-10T22:13:30.658Z,7.20
2023-05-10T22:15:57.158Z,4.05
2023-05-10T22:18:23.724Z,3.90
2023-05-10T22:20:50.306Z,5.32
2023-05-10T22:23:16.867Z,3.03
2023-05-10T22:25:43.410Z,4.22
2023-05-10T22:28:10.332Z,3.95
2023-05-10T22:30:37.083Z,3.67
2023-05-10T22:33:03.626Z,5.07
2023-05-10T22:35:30.206Z,3.67
2023-05-10T22:37:56.747Z,3.80
2023-05-10T22:40:23.207Z,4.20
2023-05-10T22:42:49.683Z,8.48
2023-05-10T22:45:16.190Z,7.57
2023-05-10T22:47:42.732Z,2.67
2023-05-10T22:50:09.407Z,4.68
2023-05-10T22:52:38.870Z,5.65
2023-05-10T22:55:06.412Z,3.95
2023-05-10T22:57:33.270Z,6.82
2023-05-10T22:59:59.748Z,2.33
2023-05-10T23:02:26.440Z,3.22
2023-05-10T23:04:52.954Z,2.67
2023-05-10T23:07:19.422Z,3.70
2023-05-10T23:09:46.185Z,4.45
2023-05-10T23:12:12.652Z,5.90
2023-05-10T23:14:39.185Z,3.83
2023-05-10T23:17:05.617Z,4.72
2023-05-10T23:19:32.070Z,4.60
2023-05-10T23:21:59.540Z,4.60
2023-05-10T23:24:26.359Z,8.05
2023-05-10T23:26:52.833Z,4.28
2023-05-10T23:29:19.424Z,4.47
2023-05-10T23:31:49.113Z,4.47
2023-05-10T23:34:15.757Z,4.88
2023-05-10T23:36:42.353Z,7.25
2023-05-10T23:39:08.842Z,5.43
2023-05-10T23:41:35.332Z,3.30
2023-05-10T23:44:02.612Z,5.68
2023-05-10T23:46:29.166Z,6.55
2023-05-10T23:48:55.702Z,4.80
2023-05-10T23:51:22.197Z,6.47
2023-05-10T23:53:48.710Z,5.05
2023-05-10T23:56:15.173Z,7.35
2023-05-10T23:58:42.672Z,6.75
